createdAt,value
2019-05-26T00:00:36.953Z,94699.16
2019-05-26T00:05:41.582Z,94707.70
2019-05-26T00:10:46.124Z,94704.39
2019-05-26T00:15:50.789Z,94698.59
2019-05-26T00:20:55.470Z,94706.11
2019-05-26T00:26:00.148Z,94702.77
2019-05-26T00:31:04.853Z,94703.95
2019-05-26T00:36:09.421Z,94704.13
2019-05-26T00:41:14.166Z,94701.30
2019-05-26T00:46:18.792Z,94705.80
2019-05-26T00:51:23.329Z,94704.67
2019-05-26T00:56:28.012Z,94707.36
2019-05-26T01:01:32.637Z,94709.35
2019-05-26T01:06:37.257Z,94709.88
2019-05-26T01:11:41.739Z,94707.05
2019-05-26T01:16:46.351Z,94720.41
2019-05-26T01:21:50.971Z,94714.08
2019-05-26T01:26:55.525Z,94713.41
2019-05-26T01:32:00.160Z,94724.60
2019-05-26T01:37:05.969Z,94720.91
2019-05-26T01:42:10.588Z,94726.27
2019-05-26T01:47:15.216Z,94720.08
2019-05-26T01:52:19.771Z,94713.42
2019-05-26T01:57:24.429Z,94711.43
2019-05-26T02:02:28.919Z,94708.53
2019-05-26T02:07:33.467Z,94711.09
2019-05-26T02:12:38.163Z,94702.58
2019-05-26T02:17:42.865Z,94707.59
2019-05-26T02:22:47.622Z,94709.27
2019-05-26T02:27:53.229Z,94706.76
2019-05-26T02:32:57.794Z,94706.27
2019-05-26T02:38:02.448Z,94711.03
2019-05-26T02:43:07.190Z,94711.04
2019-05-26T02:48:12.800Z,94707.88
2019-05-26T02:53:17.366Z,94715.91
2019-05-26T02:58:21.937Z,94724.33
2019-05-26T03:03:26.562Z,94723.95
2019-05-26T03:08:33.083Z,94726.30
2019-05-26T03:13:39.890Z,94722.99
2019-05-26T03:18:46.413Z,94725.84
2019-05-26T03:23:53.681Z,94728.52
2019-05-26T03:28:58.252Z,94729.91
2019-05-26T03:34:02.799Z,94736.25
2019-05-26T03:39:07.903Z,94735.61
2019-05-26T03:44:12.490Z,94739.09
2019-05-26T03:49:17.065Z,94737.26
2019-05-26T03:54:21.650Z,94739.45
2019-05-26T03:59:26.195Z,94744.56
2019-05-26T04:04:30.834Z,94746.61
2019-05-26T04:09:35.298Z,94746.61
2019-05-26T04:14:39.782Z,94745.94
2019-05-26T04:19:45.470Z,94747.77
2019-05-26T04:24:50.048Z,94751.53
2019-05-26T04:29:54.755Z,94750.97
2019-05-26T04:34:59.306Z,94745.61
2019-05-26T04:40:24.847Z,94752.70
2019-05-26T04:45:12.142Z,94758.22
2019-05-26T04:50:16.755Z,94762.61
2019-05-26T04:55:21.224Z,94754.89
2019-05-26T05:00:25.905Z,94757.00
2019-05-26T05:05:30.615Z,94752.12
2019-05-26T05:10:42.281Z,94764.27
2019-05-26T05:15:41.438Z,94754.86
2019-05-26T05:20:47.305Z,94758.78
2019-05-26T05:25:51.872Z,94764.36
2019-05-26T05:30:56.427Z,94766.53
2019-05-26T05:36:01.056Z,94757.69
2019-05-26T05:41:05.635Z,94750.88
2019-05-26T05:46:10.355Z,94749.50
2019-05-26T05:51:14.967Z,94750.58
2019-05-26T05:56:19.552Z,94747.11
2019-05-26T06:01:24.102Z,94756.39
2019-05-26T06:06:28.734Z,94759.56
2019-05-26T06:11:33.365Z,94762.05
2019-05-26T06:16:37.928Z,94765.24
2019-05-26T06:21:42.584Z,94757.70
2019-05-26T06:26:47.151Z,94758.69
2019-05-26T06:31:51.942Z,94759.32
2019-05-26T06:36:56.712Z,94760.33
2019-05-26T06:42:01.534Z,94758.26
2019-05-26T06:47:06.177Z,94752.02
2019-05-26T06:52:10.740Z,94756.19
2019-05-26T06:57:16.140Z,94758.70
2019-05-26T07:02:20.843Z,94754.75
2019-05-26T07:07:25.394Z,94762.81
2019-05-26T07:12:30.046Z,94763.83
2019-05-26T07:17:34.663Z,94773.80
2019-05-26T07:22:39.210Z,94762.44
2019-05-26T07:27:43.842Z,94763.09
2019-05-26T07:32:48.424Z,94766.45
2019-05-26T07:37:53.158Z,94753.97
2019-05-26T07:42:57.891Z,94758.31
2019-05-26T07:48:02.447Z,94754.25
2019-05-26T07:53:06.993Z,94759.45
2019-05-26T07:58:12.399Z,94764.18
2019-05-26T08:03:17.093Z,94761.94
2019-05-26T08:08:21.648Z,94759.50
2019-05-26T08:13:26.153Z,94762.70
2019-05-26T08:18:30.794Z,94764.69
2019-05-26T08:23:35.477Z,94769.34
2019-05-26T08:28:40.029Z,94760.90
2019-05-26T08:33:44.551Z,94757.95
2019-05-26T08:38:49.210Z,94755.62
2019-05-26T08:43:53.895Z,94750.44
2019-05-26T08:48:58.533Z,94750.07
2019-05-26T08:54:03.159Z,94734.64
2019-05-26T08:59:07.719Z,94731.63
2019-05-26T09:04:12.437Z,94735.70
2019-05-26T09:09:17.016Z,94733.45
2019-05-26T09:14:21.544Z,94736.58
2019-05-26T09:19:26.263Z,94742.98
2019-05-26T09:24:30.708Z,94741.42
2019-05-26T09:29:35.322Z,94729.19
2019-05-26T09:34:39.870Z,94732.77
2019-05-26T09:39:44.416Z,94729.84
2019-05-26T09:44:48.901Z,94729.37
2019-05-26T09:49:53.470Z,94727.09
2019-05-26T09:54:58.099Z,94717.65
2019-05-26T10:00:07.322Z,94711.28
2019-05-26T10:05:13.877Z,94705.45
2019-05-26T10:10:18.705Z,94695.43
2019-05-26T10:15:23.379Z,94696.67
2019-05-26T10:20:28.064Z,94694.22
2019-05-26T10:25:32.769Z,94690.50
2019-05-26T10:30:37.415Z,94685.79
2019-05-26T10:35:42.489Z,94687.23
2019-05-26T10:40:47.230Z,94689.91
2019-05-26T10:45:52.622Z,94681.91
2019-05-26T10:50:57.160Z,94681.33
2019-05-26T10:56:02.587Z,94680.51
2019-05-26T11:01:07.198Z,94665.51
2019-05-26T11:06:11.908Z,94662.41
2019-05-26T11:11:16.463Z,94667.95
2019-05-26T11:16:21.079Z,94661.22
2019-05-26T11:21:25.628Z,94652.80
2019-05-26T11:26:30.168Z,94646.42
2019-05-26T11:31:34.925Z,94641.48
2019-05-26T11:36:39.350Z,94638.33
2019-05-26T11:41:43.988Z,94631.06
2019-05-26T11:46:48.541Z,94636.57
2019-05-26T11:51:53.040Z,94630.11
2019-05-26T11:56:57.587Z,94618.94
2019-05-26T12:02:02.130Z,94621.08
2019-05-26T12:07:06.749Z,94624.53
2019-05-26T12:12:11.416Z,94626.23
2019-05-26T12:17:16.089Z,94623.89
2019-05-26T12:22:20.699Z,94617.20
2019-05-26T12:27:25.251Z,94609.77
2019-05-26T12:32:30.701Z,94608.47
2019-05-26T12:37:35.366Z,94607.41
2019-05-26T12:42:39.962Z,94602.52
2019-05-26T12:47:44.468Z,94589.19
2019-05-26T12:52:49.180Z,94580.32
2019-05-26T12:57:53.813Z,94585.05
2019-05-26T13:02:58.466Z,94585.19
2019-05-26T13:08:03.004Z,94574.83
2019-05-26T13:13:07.529Z,94575.08
2019-05-26T13:18:12.169Z,94571.34
2019-05-26T13:23:17.353Z,94564.34
2019-05-26T13:28:21.866Z,94567.89
2019-05-26T13:33:26.373Z,94562.47
2019-05-26T13:38:30.837Z,94563.77
2019-05-26T13:43:35.378Z,94559.20
2019-05-26T13:48:39.919Z,94560.02
2019-05-26T13:53:44.632Z,94559.66
2019-05-26T13:58:49.170Z,94557.22
2019-05-26T14:03:53.726Z,94554.46
2019-05-26T14:09:01.546Z,94552.37
2019-05-26T14:14:04.847Z,94546.19
2019-05-26T14:19:09.461Z,94545.44
2019-05-26T14:24:14.181Z,94545.80
2019-05-26T14:29:18.909Z,94547.52
2019-05-26T14:34:23.431Z,94543.04
2019-05-26T14:39:27.998Z,94545.97
2019-05-26T14:44:32.577Z,94548.73
2019-05-26T14:49:37.109Z,94548.36
2019-05-26T14:54:41.583Z,94545.77
2019-05-26T14:59:46.134Z,94538.02
2019-05-26T15:04:50.746Z,94539.85
2019-05-26T15:09:55.300Z,94536.87
2019-05-26T15:14:59.920Z,94528.90
2019-05-26T15:20:05.497Z,94538.27
2019-05-26T15:25:10.669Z,94538.93
2019-05-26T15:30:15.779Z,94546.35
2019-05-26T15:35:20.482Z,94536.06
2019-05-26T15:40:25.109Z,94535.82
2019-05-26T15:45:29.716Z,94542.09
2019-05-26T15:50:34.539Z,94549.26
2019-05-26T15:55:40.281Z,94544.55
2019-05-26T16:00:45.173Z,94541.66
2019-05-26T16:05:49.797Z,94546.67
2019-05-26T16:10:54.403Z,94554.77
2019-05-26T16:16:01.218Z,94554.80
2019-05-26T16:21:14.512Z,94558.53
2019-05-26T16:26:13.393Z,94559.31
2019-05-26T16:31:18.026Z,94560.28
2019-05-26T16:36:22.632Z,94564.89
2019-05-26T16:41:27.180Z,94557.80
2019-05-26T16:46:31.771Z,94572.41
2019-05-26T16:51:36.453Z,94568.85
2019-05-26T16:56:40.997Z,94578.19
2019-05-26T17:01:45.637Z,94572.19
2019-05-26T17:06:50.290Z,94575.67
2019-05-26T17:11:54.903Z,94578.02
2019-05-26T17:17:13.579Z,94586.16
2019-05-26T17:22:05.940Z,94590.28
2019-05-26T17:27:10.522Z,94587.45
2019-05-26T17:32:15.256Z,94585.71
2019-05-26T17:37:19.927Z,94587.82
2019-05-26T17:42:25.470Z,94586.41
2019-05-26T17:47:31.014Z,94581.73
2019-05-26T17:52:36.314Z,94583.08
2019-05-26T17:57:40.874Z,94584.45
2019-05-26T18:02:45.386Z,94587.73
2019-05-26T18:07:50.090Z,94585.02
2019-05-26T18:12:55.092Z,94582.69
2019-05-26T18:17:59.656Z,94589.50
2019-05-26T18:23:05.327Z,94604.37
2019-05-26T18:28:09.960Z,94604.33
2019-05-26T18:33:14.598Z,94619.47
2019-05-26T18:38:19.212Z,94628.39
2019-05-26T18:43:23.922Z,94632.03
2019-05-26T18:48:28.477Z,94633.13
2019-05-26T18:53:33.205Z,94634.91
2019-05-26T18:58:37.763Z,94629.74
2019-05-26T19:03:42.317Z,94633.63
2019-05-26T19:08:46.995Z,94643.65
2019-05-26T19:13:51.622Z,94645.59
2019-05-26T19:18:56.148Z,94650.41
2019-05-26T19:24:01.757Z,94667.11
2019-05-26T19:29:06.458Z,94678.34
2019-05-26T19:34:11.007Z,94684.69
2019-05-26T19:39:15.492Z,94681.09
2019-05-26T19:44:20.166Z,94689.45
2019-05-26T19:49:24.745Z,94684.33
2019-05-26T19:54:29.462Z,94678.77
2019-05-26T19:59:34.851Z,94669.49
2019-05-26T20:04:39.509Z,94666.09
2019-05-26T20:09:44.691Z,94652.92
2019-05-26T20:14:49.844Z,94648.78
2019-05-26T20:19:54.360Z,94649.30
2019-05-26T20:24:58.917Z,94662.53
2019-05-26T20:30:04.601Z,94664.94
2019-05-26T20:35:09.662Z,94671.20
2019-05-26T20:40:15.302Z,94666.36
2019-05-26T20:45:19.945Z,94671.98
2019-05-26T20:50:29.335Z,94689.19
2019-05-26T20:55:31.038Z,94683.38
2019-05-26T21:00:35.604Z,94681.00
2019-05-26T21:05:40.176Z,94686.63
2019-05-26T21:10:44.827Z,94687.95
2019-05-26T21:15:49.362Z,94686.59
2019-05-26T21:20:53.955Z,94676.69
2019-05-26T21:25:58.528Z,94688.33
2019-05-26T21:31:03.247Z,94684.80
2019-05-26T21:36:07.791Z,94678.70
2019-05-26T21:41:12.458Z,94673.84
2019-05-26T21:46:17.093Z,94666.81
2019-05-26T21:51:21.660Z,94674.80
2019-05-26T21:56:26.469Z,94680.05
2019-05-26T22:01:31.176Z,94666.89
2019-05-26T22:06:35.763Z,94664.33
2019-05-26T22:11:40.383Z,94669.75
2019-05-26T22:16:45.897Z,94665.45
2019-05-26T22:21:50.733Z,94664.55
2019-05-26T22:26:56.051Z,94662.22
2019-05-26T22:32:00.755Z,94671.25
2019-05-26T22:37:05.461Z,94665.03
2019-05-26T22:42:10.168Z,94650.83
2019-05-26T22:47:14.801Z,94653.64
2019-05-26T22:52:19.416Z,94640.33
2019-05-26T22:57:23.893Z,94641.34
2019-05-26T23:02:28.499Z,94640.94
2019-05-26T23:07:34.779Z,94652.97
2019-05-26T23:12:39.254Z,94653.45
2019-05-26T23:17:43.929Z,94668.78
2019-05-26T23:22:48.506Z,94660.73
2019-05-26T23:27:53.124Z,94664.44
2019-05-26T23:32:57.697Z,94657.07
2019-05-26T23:38:02.281Z,94654.61
2019-05-26T23:43:08.368Z,94655.30
2019-05-26T23:48:13.020Z,94650.34
2019-05-26T23:53:17.582Z,94640.00
2019-05-26T23:58:22.161Z,94640.63
